Terminal Aerodrome Forecast
Issued by NWS Wilmington, OH

Home | Current Version | Previous Version | Text Only | Print | Product List | Glossary On
Versions: 1 2 3 4 5 6 7 8 9 10 11 12 13 14 15 16 17 18 19 20 21
625
FTUS41 KILN 120900 AAA
TAFDAY
TAF AMD
KDAY 120900Z 1209/1306 30016G24KT P6SM OVC007
      TEMPO 1209/1211 3SM -DZ BR
     FM121100 31018G28KT 3SM -SHSN OVC018
     FM121300 31018G26KT 5SM -SHSN BKN022 OVC040
      TEMPO 1217/1219 1SM -SHSN
     FM122000 30018G26KT P6SM VCSH OVC035
     FM130000 29014KT P6SM BKN035=

USA.gov is the U.S. government's official web portal to all federal, state and local government web resources and services.